Latest Weather Observations for Inverell RS

IDN60801

Issued at 7:42 pm EST Wednesday 12 August 2020 (issued every 10 minutes, with the page automatically refreshed every 10 minutes)

About weather observations | Map of weather stations | Latest weather observations for NSW | Other Formats
Station Details ID: 056018 Name: INVERELL RESEARCH CENTRE Lat: -29.78 Lon: 151.08 Height: 664.0 m
Data from the previous 72 hours. | See also: Recent months at Inverell RS
Date/Time
EST
Temp
°C
App
Temp
°C
Dew
Point
°C
Rel
Hum
%
Delta-T
°C
Wind Press
QNH
hPa
Press
MSL
hPa
Rain since
9am
mm
Dir  Spd
km/h
Gust
km/h
Spd
kts
Gust
kts
12/07:30pm 13.5 12.3 8.1 70 2.8 NNW 4 9 2 5 1016.1 1015.8 0.0
12/07:00pm 14.8 12.3 8.1 64 3.5 NNW 11 15 6 8 1015.9 1015.6 0.0
12/06:30pm 15.4 12.9 8.4 63 3.7 NW 11 15 6 8 1015.8 1015.5 0.0
12/06:00pm 15.7 13.5 7.7 59 4.1 NW 9 13 5 7 1015.7 1015.4 0.0
12/05:30pm 15.9 13.6 7.4 57 4.4 NW 9 11 5 6 1015.4 1015.2 0.0
12/05:00pm 16.8 14.3 8.2 57 4.5 NNW 11 17 6 9 1015.2 1015.0 0.0
12/04:30pm 17.9 14.6 8.2 53 5.1 NNW 15 22 8 12 1015.1 1014.8 0.0
12/04:00pm 17.8 13.6 8.1 53 5.1 N 20 30 11 16 1015.0 1014.7 0.0
12/03:30pm 18.4 15.2 8.4 52 5.3 N 15 24 8 13 1014.7 1014.4 0.0
12/03:00pm 18.8 15.7 8.7 52 5.4 NNW 15 26 8 14 1014.8 1014.5 0.0
12/02:30pm 18.6 15.1 8.6 52 5.4 NNW 17 26 9 14 1015.3 1015.1 0.0
12/02:00pm 18.3 15.3 9.1 55 5.0 N 15 24 8 13 1015.3 1015.1 0.0
12/01:30pm 18.5 15.4 9.0 54 5.1 NNW 15 22 8 12 1015.8 1015.5 0.0
12/01:00pm 17.9 14.5 9.3 57 4.7 N 17 26 9 14 1016.2 1015.9 0.0
12/12:30pm 18.3 15.6 10.4 60 4.4 NNW 15 26 8 14 1016.9 1016.7 0.0
12/12:00pm 16.9 14.3 10.7 67 3.4 N 15 28 8 15 1017.7 1017.4 0.0
12/11:30am 17.1 13.7 10.5 65 3.6 N 19 28 10 15 1018.2 1018.0 0.0
12/11:00am 15.5 11.4 10.1 70 2.9 N 22 30 12 16 1018.7 1018.5 0.0
12/10:30am 14.5 10.8 10.3 76 2.3 N 20 30 11 16 1019.4 1019.2 0.0
12/10:00am 14.2 10.9 10.8 80 1.9 N 19 30 10 16 1019.9 1019.7 0.0
12/09:30am 12.3 9.4 9.5 83 1.5 N 15 22 8 12 1020.1 1019.9 0.0
12/09:00am 12.1 9.5 9.5 84 1.4 NNE 13 19 7 10 1020.2 1020.4 0.0
12/08:30am 11.0 9.4 8.9 87 1.1 NNE 7 11 4 6 1020.3 1020.2 0.0
12/08:00am 10.9 8.9 8.5 85 1.2 NNE 9 13 5 7 1020.2 1020.0 0.0
12/07:30am 10.2 8.5 8.3 88 1.0 N 7 9 4 5 1020.2 1020.0 0.0
12/07:00am 9.7 7.9 8.0 89 0.9 NNE 7 9 4 5 1019.7 1019.5 0.0
12/06:30am 9.3 7.5 7.9 91 0.7 NNE 7 9 4 5 1019.4 1019.2 0.0
12/06:00am 8.7 8.1 7.5 92 0.6 CALM 0 0 0 0 1019.1 1019.3 0.0
12/05:30am 8.4 7.8 7.2 92 0.6 CALM 0 0 0 0 1018.7 1018.5 0.0
12/05:00am 8.4 7.7 7.0 91 0.7 CALM 0 0 0 0 1018.2 1018.0 0.0
12/04:30am 8.6 7.9 7.1 90 0.7 CALM 0 4 0 2 1018.1 1017.9 0.0
12/04:00am 8.7 6.9 7.0 89 0.8 N 6 7 3 4 1018.0 1017.8 0.0
12/03:30am 8.9 6.9 6.9 87 1.0 N 7 9 4 5 1018.2 1018.0 0.0
12/03:00am 9.2 8.2 7.2 87 1.0 NE 2 7 1 4 1018.1 1018.2 0.0
12/02:30am 9.1 8.4 6.9 86 1.1 CALM 0 0 0 0 1018.1 1017.9 0.0
12/02:00am 9.0 7.5 6.6 85 1.2 SE 4 7 2 4 1018.5 1018.3 0.0
12/01:30am 9.3 8.5 6.7 84 1.3 CALM 0 0 0 0 1018.6 1018.4 0.0
12/01:00am 9.7 9.0 7.0 83 1.3 CALM 0 0 0 0 1019.0 1018.7 0.0
12/12:30am 9.5 8.0 6.8 83 1.3 E 4 7 2 4 1018.9 1018.6 0.0
12/12:00am 9.4 8.6 6.5 82 1.4 CALM 0 4 0 2 1018.9 1019.0 0.0
 
Date/Time
EST
Temp
°C
App
Temp
°C
Dew
Point
°C
Rel
Hum
%
Delta-T
°C
Wind Press
QNH
hPa
Press
MSL
hPa
Rain since
9am
mm
Dir  Spd
km/h
Gust
km/h
Spd
kts
Gust
kts
11/11:30pm 9.3 7.2 6.7 84 1.3 SSE 7 9 4 5 1019.0 1018.7 0.0
11/11:00pm 8.7 6.5 6.2 84 1.2 S 7 9 4 5 1018.6 1018.4 0.0
11/10:30pm 8.9 6.7 6.2 83 1.3 SSE 7 9 4 5 1018.3 1018.1 0.0
11/10:00pm 9.0 6.8 6.1 82 1.4 SE 7 9 4 5 1018.5 1018.3 0.0
11/09:30pm 9.1 7.4 5.7 79 1.6 SSW 4 7 2 4 1018.5 1018.3 0.0
11/09:00pm 9.8 8.8 5.8 76 1.9 CALM 0 0 0 0 1018.9 1019.0 0.0
11/08:30pm 10.1 9.2 5.9 75 2.0 CALM 0 0 0 0 1018.7 1018.5 0.0
11/08:00pm 11.2 9.9 6.1 71 2.5 SW 2 7 1 4 1018.5 1018.3 0.0
11/07:30pm 12.5 9.9 6.3 66 3.1 SW 9 9 5 5 1018.4 1018.2 0.0
11/07:00pm 12.8 10.3 6.4 65 3.2 SW 9 11 5 6 1018.2 1018.0 0.0
11/06:30pm 12.7 10.2 6.5 66 3.1 WSW 9 11 5 6 1017.9 1017.7 0.0
11/06:00pm 12.5 10.3 6.3 66 3.0 WSW 7 9 4 5 1017.6 1017.7 0.0
11/05:30pm 13.5 11.4 6.6 63 3.4 WSW 7 9 4 5 1017.5 1017.2 0.0
11/05:00pm 15.0 12.9 6.6 57 4.2 W 7 13 4 7 1017.4 1017.1 0.0
11/04:30pm 16.5 14.1 6.9 53 4.9 W 9 13 5 7 1017.3 1017.0 0.0
11/04:00pm 16.8 13.9 6.6 51 5.2 WNW 11 15 6 8 1016.9 1016.7 0.0
11/03:30pm 16.6 13.4 6.7 52 5.1 WNW 13 19 7 10 1017.0 1016.8 0.0
11/03:00pm 17.8 14.9 6.7 48 5.7 WNW 11 17 6 9 1017.1 1017.3 0.0
11/02:30pm 17.9 15.6 7.3 50 5.5 W 9 17 5 9 1017.3 1017.0 0.0
11/02:00pm 17.8 14.3 5.4 44 6.2 NW 13 19 7 10 1017.5 1017.2 0.0
11/01:30pm 17.7 14.6 5.6 45 6.1 NNW 11 19 6 10 1017.8 1017.6 0.0
11/01:00pm 17.2 14.7 6.4 49 5.5 NNW 9 15 5 8 1018.0 1017.8 0.0
11/12:30pm 18.2 16.0 7.9 51 5.4 N 9 15 5 8 1018.2 1018.0 0.0
11/12:00pm 17.3 15.0 7.4 52 5.1 NNW 9 17 5 9 1018.7 1018.9 0.0
11/11:30am 16.3 14.1 6.4 52 5.0 NNE 7 11 4 6 1019.2 1019.0 0.0
11/11:00am 15.2 13.1 5.7 53 4.7 ENE 6 11 3 6 1019.4 1019.2 0.0
11/10:30am 13.9 11.5 5.3 56 4.2 E 7 11 4 6 1019.7 1019.5 0.0
11/10:00am 13.1 10.6 5.0 58 3.9 E 7 13 4 7 1020.0 1019.8 0.0
11/09:30am 12.3 9.9 5.2 62 3.4 SE 7 9 4 5 1020.0 1019.8 0.0
11/09:00am 11.5 8.8 5.4 66 2.9 SE 9 11 5 6 1020.0 1020.2 0.0
11/08:30am 9.7 6.8 4.7 71 2.3 SSE 9 13 5 7 1020.0 1019.8 0.0
11/08:00am 9.3 6.6 5.5 77 1.8 SSE 9 13 5 7 1019.9 1019.7 0.0
11/07:30am 8.0 4.7 4.8 80 1.5 S 11 15 6 8 1019.6 1019.4 0.0
11/07:00am 7.1 4.2 4.8 85 1.0 S 9 15 5 8 1019.3 1019.1 0.0
11/06:30am 6.4 3.1 4.4 87 0.9 SSW 11 17 6 9 1018.9 1018.6 0.0
11/06:00am 6.5 2.8 4.3 86 1.0 SSW 13 17 7 9 1018.5 1018.7 0.0
11/05:30am 6.1 2.4 4.3 88 0.8 SW 13 17 7 9 1018.2 1018.0 0.0
11/05:00am 6.4 3.1 4.4 87 0.9 SSW 11 15 6 8 1017.8 1017.6 0.0
11/04:30am 6.3 2.5 4.1 86 1.0 SSW 13 19 7 10 1017.5 1017.2 0.0
11/04:00am 6.6 2.5 4.4 86 1.0 SSW 15 20 8 11 1017.4 1017.1 0.0
11/03:30am 6.5 2.8 4.3 86 1.0 SW 13 20 7 11 1017.5 1017.2 0.0
11/03:00am 6.5 2.8 4.2 85 1.0 SSW 13 20 7 11 1017.5 1017.6 0.0
11/02:30am 6.4 2.7 4.2 86 1.0 SW 13 19 7 10 1017.6 1017.3 0.0
11/02:00am 6.5 2.4 4.5 87 0.9 SW 15 26 8 14 1017.9 1017.7 0.0
11/01:30am 6.4 2.8 4.9 90 0.7 SW 13 19 7 10 1018.1 1017.9 0.0
11/01:00am 6.5 2.8 4.7 88 0.8 WSW 13 19 7 10 1018.3 1018.1 0.0
11/12:30am 6.7 3.0 4.7 87 0.9 SW 13 24 7 13 1018.2 1018.0 0.0
11/12:00am 6.8 3.1 4.6 86 1.0 SW 13 17 7 9 1018.3 1018.5 0.0
 
Date/Time
EST
Temp
°C
App
Temp
°C
Dew
Point
°C
Rel
Hum
%
Delta-T
°C
Wind Press
QNH
hPa
Press
MSL
hPa
Rain since
9am
mm
Dir  Spd
km/h
Gust
km/h
Spd
kts
Gust
kts
10/11:30pm 7.4 3.7 4.7 83 1.2 SW 13 20 7 11 1018.1 1017.9 0.0
10/11:00pm 7.3 4.0 4.8 84 1.1 WSW 11 19 6 10 1018.3 1018.1 0.0
10/10:30pm 7.5 4.7 5.0 84 1.1 SW 9 19 5 10 1018.2 1018.0 0.0
10/10:00pm 7.9 4.9 5.9 87 0.9 SW 11 19 6 10 1018.1 1017.9 0.0
10/09:30pm 6.5 4.3 5.1 91 0.6 SSW 6 11 3 6 1018.2 1018.0 0.0
10/09:00pm 7.9 5.3 5.9 87 0.9 SW 9 13 5 7 1017.9 1018.1 0.0
10/08:30pm 7.6 5.2 5.4 86 1.0 WSW 7 9 4 5 1017.7 1017.4 0.0
10/08:00pm 8.7 6.1 6.0 83 1.3 SW 9 17 5 9 1017.4 1017.1 0.0
10/07:30pm 9.2 6.2 6.1 81 1.5 SSW 11 19 6 10 1017.1 1016.9 0.0
10/07:00pm 9.9 6.6 6.6 80 1.6 S 13 19 7 10 1017.0 1016.8 0.0
10/06:30pm 10.6 7.8 7.1 79 1.7 SSW 11 19 6 10 1016.8 1016.6 0.0
10/06:00pm 11.1 7.9 7.0 76 2.0 S 13 24 7 13 1016.1 1016.2 0.0
10/05:30pm 10.9 8.6 7.6 80 1.7 S 9 20 5 11 1015.4 1015.2 0.0
10/05:00pm 10.8 8.6 7.7 81 1.6 S 9 15 5 8 1015.0 1014.7 0.0
10/04:30pm 11.1 9.2 7.6 79 1.8 SW 7 17 4 9 1014.8 1014.5 0.0
10/04:00pm 11.4 9.5 7.5 77 2.0 WSW 7 17 4 9 1014.5 1014.2 0.0
10/03:30pm 11.0 9.0 7.1 77 1.9 W 7 11 4 6 1014.2 1013.9 0.0
10/03:00pm 10.9 8.2 7.2 78 1.8 WSW 11 22 6 12 1013.9 1014.1 0.0
10/02:30pm 10.9 8.3 7.6 80 1.7 W 11 22 6 12 1013.7 1013.4 0.0
10/02:00pm 10.4 7.6 6.9 79 1.7 W 11 17 6 9 1013.7 1013.4 0.0
10/01:30pm 10.9 8.1 6.8 76 2.0 SW 11 20 6 11 1013.4 1013.1 0.0
10/01:00pm 10.9 7.3 6.6 75 2.1 SSW 15 28 8 15 1013.4 1013.1 0.0
10/12:30pm 10.8 8.1 7.3 79 1.7 SSW 11 19 6 10 1013.5 1013.2 0.0
10/12:00pm 10.8 7.7 7.1 78 1.8 SSW 13 20 7 11 1013.7 1013.8 0.0
10/11:30am 10.1 6.9 6.8 80 1.6 S 13 20 7 11 1014.1 1013.8 0.0
10/11:00am 8.9 6.0 6.3 84 1.2 SSW 11 20 6 11 1014.2 1013.9 0.0
10/10:30am 8.3 5.3 5.9 85 1.1 S 11 19 6 10 1014.1 1013.8 0.0
10/10:00am 7.5 4.0 5.5 87 0.9 S 13 19 7 10 1013.7 1013.4 0.0
10/09:30am 7.1 4.5 5.9 92 0.6 S 9 19 5 10 1013.7 1013.4 0.0
10/09:00am 6.6 3.5 5.7 94 0.4 SW 11 22 6 12 1013.5 1013.6 2.2
10/08:30am 6.0 3.7 5.7 98 0.1 W 7 11 4 6 1012.9 1012.6 2.2
10/08:00am 5.7 2.9 5.3 97 0.2 W 9 24 5 13 1012.8 1012.5 2.2
10/07:30am 5.2 2.8 5.1 99 0.0 W 7 13 4 7 1012.6 1012.3 2.2
10/07:00am 4.7 2.2 4.6 99 0.0 NW 7 13 4 7 1012.0 1011.7 2.2
10/06:30am 4.7 1.8 4.6 99 0.0 W 9 15 5 8 1011.8 1011.5 2.2
10/06:00am 4.7 1.0 4.6 99 0.0 WNW 13 22 7 12 1011.4 1011.5 2.2
10/05:30am 4.7 1.4 4.4 98 0.1 WNW 11 17 6 9 1011.1 1010.7 2.2
10/05:00am 4.8 1.1 4.2 96 0.3 W 13 26 7 14 1010.9 1010.5 2.0
10/04:30am 5.0 2.0 4.0 93 0.4 NW 9 17 5 9 1010.9 1010.5 2.0
10/04:00am 5.1 2.1 4.1 93 0.4 WNW 9 20 5 11 1011.0 1010.6 2.0
10/03:30am 5.0 1.6 4.0 93 0.4 WNW 11 22 6 12 1011.1 1010.7 2.0
10/03:00am 5.2 1.5 4.5 95 0.3 WNW 13 22 7 12 1011.4 1011.5 2.0
10/02:30am 5.0 1.3 4.4 96 0.3 WNW 13 19 7 10 1011.6 1011.3 2.0
10/02:00am 4.8 1.4 4.2 96 0.3 WNW 11 17 6 9 1011.7 1011.4 2.0
10/01:30am 4.6 1.3 4.3 98 0.1 NW 11 19 6 10 1012.0 1011.7 2.0
10/01:00am 4.4 1.0 4.0 97 0.2 NW 11 15 6 8 1012.0 1011.7 2.0
10/12:30am 4.8 1.5 4.4 97 0.2 WNW 11 19 6 10 1012.3 1012.0 2.0
10/12:00am 4.9 1.9 4.3 96 0.3 WNW 9 17 5 9 1012.5 1012.5 2.0
 
Date/Time
EST
Temp
°C
App
Temp
°C
Dew
Point
°C
Rel
Hum
%
Delta-T
°C
Wind Press
QNH
hPa
Press
MSL
hPa
Rain since
9am
mm
Dir  Spd
km/h
Gust
km/h
Spd
kts
Gust
kts
09/11:30pm 5.3 2.0 4.7 96 0.3 NW 11 19 6 10 1012.3 1012.0 2.0
09/11:00pm 5.5 2.2 4.6 94 0.4 WNW 11 17 6 9 1012.8 1012.5 2.0
09/10:30pm 5.7 2.8 4.7 93 0.4 WNW 9 15 5 8 1012.9 1012.6 2.0
09/10:00pm 6.0 3.2 5.1 94 0.4 WNW 9 15 5 8 1013.1 1012.8 2.0
09/09:30pm 6.0 3.2 5.3 95 0.3 NW 9 13 5 7 1013.4 1013.1 2.0
09/09:00pm 6.0 3.6 5.3 95 0.3 NW 7 15 4 8 1013.2 1013.3 2.0
09/08:30pm 6.2 3.0 5.3 94 0.4 WNW 11 19 6 10 1013.4 1013.1 2.0
09/08:00pm 6.3 3.5 5.1 92 0.5 WNW 9 15 5 8 1013.3 1013.0 2.0

Other formats

Comma delimited format used in spreadsheet applications
http://www.bom.gov.au/fwo/IDN60801/IDN60801.94541.axf

JavaScript Object Notation format (JSON) in row-major order
http://www.bom.gov.au/fwo/IDN60801/IDN60801.94541.json

Data quality

Most of these data are generated automatically and are frequently updated. Quality checks on data are not normally performed. It is possible for incorrect values to appear. Refer to information at About Latest Weather Observations and please check the disclaimer before using these data.